Time;durP1;ratioP1;P1;durP2;ratioP2;P2;SDS_P1;SDS_P2;PMS_P1;PMS_P2;Temp;Humidity;BMP_temperature;BMP_pressure;BME280_temperature;BME280_humidity;BME280_pressure;Samples;Min_cycle;Max_cycle;Signal;HPM_P1;HPM_P2
2022/09/03 00:00:35;;;;;;;4.72;1.40;;;;;;;;;;5109874;27;20035;-75
2022/09/03 00:03:04;;;;;;;3.17;1.30;;;;;;;;;;5105722;28;20046;-75
2022/09/03 00:05:50;;;;;;;4.30;1.00;;;;;;;;;;5094303;28;20538;-75
2022/09/03 00:08:19;;;;;;;5.38;1.55;;;;;;;;;;5105694;28;20078;-75
2022/09/03 00:10:58;;;;;;;2.72;1.15;;;;;;;;;;5112732;28;20047;-76
2022/09/03 00:13:44;;;;;;;3.85;1.10;;;;;;;;;;5112625;28;20040;-76
2022/09/03 00:16:14;;;;;;;3.22;0.98;;;;;;;;;;5080310;28;20043;-76
2022/09/03 00:18:46;;;;;;;2.33;1.10;;;;;;;;;;5106632;28;20090;-76
2022/09/03 00:21:18;;;;;;;4.32;1.15;;;;;;;;;;5099627;28;20558;-74
2022/09/03 00:23:46;;;;;;;3.95;1.00;;;;;;;;;;5112176;28;20056;-75
2022/09/03 00:26:25;;;;;;;2.88;1.27;;;;;;;;;;5105965;28;20100;-76
2022/09/03 00:28:55;;;;;;;4.57;1.17;;;;;;;;;;5101311;28;20080;-76
2022/09/03 00:31:27;;;;;;;3.22;1.02;;;;;;;;;;5099375;28;20070;-75
2022/09/03 00:33:59;;;;;;;3.10;0.93;;;;;;;;;;5112255;28;20044;-76
2022/09/03 00:36:31;;;;;;;2.50;1.37;;;;;;;;;;5112399;28;20557;-76
2022/09/03 00:38:58;;;;;;;5.63;1.30;;;;;;;;;;5092898;28;20028;-74
2022/09/03 00:41:37;;;;;;;6.78;1.75;;;;;;;;;;5099158;28;20035;-76
2022/09/03 00:44:22;;;;;;;2.90;1.35;;;;;;;;;;5103490;28;20069;-75
2022/09/03 00:47:06;;;;;;;4.18;1.00;;;;;;;;;;5079813;28;20035;-75
2022/09/03 00:49:33;;;;;;;2.83;1.20;;;;;;;;;;5093566;28;20054;-75
2022/09/03 00:52:22;;;;;;;2.80;1.17;;;;;;;;;;5110124;28;20047;-75
2022/09/03 00:55:12;;;;;;;5.53;1.10;;;;;;;;;;5111074;28;20036;-75
2022/09/03 00:57:56;;;;;;;2.53;0.88;;;;;;;;;;5112016;28;20032;-76
2022/09/03 01:00:22;;;;;;;4.15;1.20;;;;;;;;;;5079550;28;20126;-76
2022/09/03 01:03:01;;;;;;;2.80;0.82;;;;;;;;;;5094391;28;20600;-76
2022/09/03 01:05:30;;;;;;;9.48;1.25;;;;;;;;;;5096541;28;20460;-76
2022/09/03 01:08:08;;;;;;;2.05;1.15;;;;;;;;;;5093026;28;20382;-76
2022/09/03 01:10:38;;;;;;;2.90;1.48;;;;;;;;;;5105918;28;20117;-76
2022/09/03 01:13:10;;;;;;;1.45;1.08;;;;;;;;;;5111967;28;20048;-75
2022/09/03 01:15:48;;;;;;;3.47;1.05;;;;;;;;;;5081843;28;20039;-75
2022/09/03 01:18:17;;;;;;;3.05;0.90;;;;;;;;;;5082542;28;20055;-76
2022/09/03 01:20:58;;;;;;;1.50;0.90;;;;;;;;;;5108159;28;20102;-75
2022/09/03 01:23:42;;;;;;;3.08;0.98;;;;;;;;;;5095697;28;20054;-75
2022/09/03 01:26:27;;;;;;;4.63;1.77;;;;;;;;;;5090464;28;20124;-75
2022/09/03 01:29:04;;;;;;;2.65;1.10;;;;;;;;;;5103362;28;20036;-76
2022/09/03 01:31:45;;;;;;;3.63;1.33;;;;;;;;;;5108745;28;20060;-76
2022/09/03 01:34:15;;;;;;;1.52;0.80;;;;;;;;;;5115410;28;20074;-76
2022/09/03 01:36:50;;;;;;;4.00;1.40;;;;;;;;;;5085194;28;20275;-76
2022/09/03 01:39:29;;;;;;;3.40;1.63;;;;;;;;;;5094089;28;20043;-75
2022/09/03 01:42:14;;;;;;;2.08;1.50;;;;;;;;;;5097049;28;20031;-76
2022/09/03 01:44:40;;;;;;;3.33;1.13;;;;;;;;;;5118643;27;20067;-76
2022/09/03 01:47:13;;;;;;;2.47;1.15;;;;;;;;;;5092556;28;20085;-76
2022/09/03 01:49:58;;;;;;;2.13;1.00;;;;;;;;;;5094613;28;20571;-76
2022/09/03 01:52:45;;;;;;;3.38;0.90;;;;;;;;;;5098560;28;20062;-75
2022/09/03 01:55:29;;;;;;;2.72;1.20;;;;;;;;;;5102743;28;20047;-74
2022/09/03 01:58:01;;;;;;;3.00;1.65;;;;;;;;;;5115996;28;20039;-76
2022/09/03 02:00:30;;;;;;;1.75;1.05;;;;;;;;;;5110534;28;20032;-76
2022/09/03 02:06:00;;;;;;;2.22;1.05;;;;;;;;;;5103663;28;20040;-75
2022/09/03 02:08:26;;;;;;;2.90;1.20;;;;;;;;;;5101018;28;20096;-76
2022/09/03 02:10:55;;;;;;;3.30;1.05;;;;;;;;;;5102063;28;20047;-76
2022/09/03 02:13:26;;;;;;;2.78;0.98;;;;;;;;;;5089363;28;20040;-76
2022/09/03 02:15:54;;;;;;;2.55;1.20;;;;;;;;;;5085992;28;20474;-76
2022/09/03 02:18:24;;;;;;;4.18;0.90;;;;;;;;;;5090691;28;20093;-76
2022/09/03 02:20:52;;;;;;;5.15;0.85;;;;;;;;;;5096456;28;20039;-76
2022/09/03 02:23:18;;;;;;;2.80;1.00;;;;;;;;;;5115326;28;20031;-76
2022/09/03 02:25:47;;;;;;;3.42;1.30;;;;;;;;;;5093966;28;20105;-76
2022/09/03 02:28:14;;;;;;;3.63;1.10;;;;;;;;;;5071620;28;20032;-76
2022/09/03 02:30:41;;;;;;;2.30;1.10;;;;;;;;;;5102027;27;20036;-76
2022/09/03 02:36:13;;;;;;;11.90;1.52;;;;;;;;;;5115252;28;20046;-76
2022/09/03 02:38:41;;;;;;;4.40;1.10;;;;;;;;;;5115069;28;20044;-76
2022/09/03 02:41:07;;;;;;;1.63;1.05;;;;;;;;;;5102430;28;20081;-76
2022/09/03 02:43:37;;;;;;;2.90;1.00;;;;;;;;;;5112213;28;20376;-76
2022/09/03 02:46:05;;;;;;;4.15;1.20;;;;;;;;;;5091812;28;20035;-76
2022/09/03 02:48:31;;;;;;;1.55;0.93;;;;;;;;;;5102141;27;20078;-76
2022/09/03 02:50:58;;;;;;;1.30;0.70;;;;;;;;;;5067750;28;20036;-76
2022/09/03 02:53:27;;;;;;;1.63;1.08;;;;;;;;;;5090962;28;20501;-76
2022/09/03 02:56:02;;;;;;;3.03;1.00;;;;;;;;;;5086517;28;20123;-76
2022/09/03 02:58:30;;;;;;;1.30;0.73;;;;;;;;;;5090824;27;20501;-76
2022/09/03 03:01:15;;;;;;;1.00;0.90;;;;;;;;;;5102491;28;20430;-76
2022/09/03 03:03:41;;;;;;;2.38;1.15;;;;;;;;;;5095846;28;20036;-76
2022/09/03 03:06:07;;;;;;;1.77;0.93;;;;;;;;;;5107108;28;20036;-76
2022/09/03 03:08:34;;;;;;;2.28;1.20;;;;;;;;;;5085407;28;20085;-76
2022/09/03 03:11:00;;;;;;;2.33;1.15;;;;;;;;;;5101612;27;20491;-76
2022/09/03 03:13:27;;;;;;;1.58;0.93;;;;;;;;;;5077649;28;20039;-76
2022/09/03 03:16:07;;;;;;;1.23;1.10;;;;;;;;;;5104074;28;20039;-76
2022/09/03 03:18:34;;;;;;;2.63;1.42;;;;;;;;;;5101344;28;20042;-76
2022/09/03 03:21:05;;;;;;;5.35;1.50;;;;;;;;;;5076228;28;20036;-76
2022/09/03 03:23:32;;;;;;;2.83;1.10;;;;;;;;;;5109321;28;20399;-76
2022/09/03 03:26:00;;;;;;;3.40;1.17;;;;;;;;;;5100144;28;20058;-76
2022/09/03 03:28:26;;;;;;;3.28;1.10;;;;;;;;;;5113379;28;20114;-76
2022/09/03 03:30:53;;;;;;;3.08;1.33;;;;;;;;;;5115488;27;20130;-76
2022/09/03 03:33:19;;;;;;;3.40;1.45;;;;;;;;;;5105174;28;20039;-77
2022/09/03 03:35:45;;;;;;;3.55;1.15;;;;;;;;;;5104731;28;20520;-75
2022/09/03 03:38:11;;;;;;;1.85;1.10;;;;;;;;;;5105324;28;20063;-76
2022/09/03 03:40:38;;;;;;;3.53;1.00;;;;;;;;;;5058333;28;20044;-76
2022/09/03 03:43:04;;;;;;;4.03;1.10;;;;;;;;;;5087620;28;20036;-76
2022/09/03 03:45:30;;;;;;;4.03;1.00;;;;;;;;;;5092166;28;20027;-76
2022/09/03 03:47:58;;;;;;;1.98;0.90;;;;;;;;;;5101092;28;20036;-75
2022/09/03 03:50:46;;;;;;;2.90;1.35;;;;;;;;;;5097435;28;20079;-76
2022/09/03 03:53:12;;;;;;;1.90;1.00;;;;;;;;;;5102730;28;20111;-76
2022/09/03 03:55:38;;;;;;;1.92;1.02;;;;;;;;;;5109535;27;20046;-76
2022/09/03 03:58:04;;;;;;;1.95;1.08;;;;;;;;;;5107465;28;20058;-76
2022/09/03 04:00:30;;;;;;;1.55;0.80;;;;;;;;;;5094321;28;20043;-76
2022/09/03 04:02:56;;;;;;;3.15;1.13;;;;;;;;;;5082790;28;20127;-76
2022/09/03 04:05:22;;;;;;;3.13;0.90;;;;;;;;;;5097961;28;20086;-75
2022/09/03 04:07:48;;;;;;;5.47;1.33;;;;;;;;;;5100865;28;20028;-77
2022/09/03 04:10:15;;;;;;;2.20;0.98;;;;;;;;;;5089848;28;20470;-76
2022/09/03 04:12:42;;;;;;;3.42;1.02;;;;;;;;;;5087439;28;20105;-76
2022/09/03 04:15:08;;;;;;;2.42;1.02;;;;;;;;;;5112564;28;20047;-77
2022/09/03 04:17:34;;;;;;;1.60;1.00;;;;;;;;;;5113099;28;20054;-75
2022/09/03 04:20:00;;;;;;;1.83;0.93;;;;;;;;;;5063844;28;20127;-76
2022/09/03 04:22:28;;;;;;;1.75;1.20;;;;;;;;;;5091837;28;20048;-75
2022/09/03 04:25:13;;;;;;;1.83;1.10;;;;;;;;;;5108731;28;20091;-77
2022/09/03 04:27:39;;;;;;;2.47;1.20;;;;;;;;;;5094502;28;20421;-76
2022/09/03 04:30:05;;;;;;;2.90;1.45;;;;;;;;;;5103810;27;20047;-76
2022/09/03 04:35:24;;;;;;;3.42;1.23;;;;;;;;;;5079747;28;20080;-75
2022/09/03 04:37:54;;;;;;;2.60;1.17;;;;;;;;;;5092388;28;20036;-77
2022/09/03 04:40:21;;;;;;;2.10;1.00;;;;;;;;;;5087063;28;20086;-77
2022/09/03 04:42:47;;;;;;;2.65;1.60;;;;;;;;;;5109286;28;20040;-76
2022/09/03 04:45:17;;;;;;;2.70;1.25;;;;;;;;;;5112405;28;20294;-76
2022/09/03 04:47:45;;;;;;;3.35;1.40;;;;;;;;;;5085194;28;20100;-76
2022/09/03 04:50:13;;;;;;;1.58;1.10;;;;;;;;;;5094142;28;20036;-77
2022/09/03 04:52:40;;;;;;;3.35;1.45;;;;;;;;;;5089486;28;20386;-76
2022/09/03 04:55:06;;;;;;;2.75;1.63;;;;;;;;;;5095883;28;20089;-76
2022/09/03 04:57:36;;;;;;;3.13;1.20;;;;;;;;;;5110280;28;20066;-76
2022/09/03 05:00:03;;;;;;;4.63;1.50;;;;;;;;;;5083481;28;20050;-77
2022/09/03 05:02:30;;;;;;;3.15;1.30;;;;;;;;;;5088160;28;20036;-76
2022/09/03 05:04:56;;;;;;;3.20;1.55;;;;;;;;;;5111462;28;20089;-74
2022/09/03 05:07:22;;;;;;;2.08;1.15;;;;;;;;;;5075913;28;20040;-76
2022/09/03 05:09:48;;;;;;;1.58;1.20;;;;;;;;;;5093064;28;20046;-77
2022/09/03 05:12:16;;;;;;;3.60;1.02;;;;;;;;;;5107604;28;20478;-77
2022/09/03 05:14:42;;;;;;;2.70;1.40;;;;;;;;;;5111655;28;20047;-77
2022/09/03 05:17:08;;;;;;;2.00;1.13;;;;;;;;;;5105030;28;20085;-77
2022/09/03 05:19:34;;;;;;;4.10;1.23;;;;;;;;;;5113577;28;20490;-77
2022/09/03 05:22:00;;;;;;;4.60;1.15;;;;;;;;;;5096656;28;20074;-77
2022/09/03 05:24:27;;;;;;;4.03;1.20;;;;;;;;;;5108406;28;20059;-77
2022/09/03 05:26:54;;;;;;;4.28;1.10;;;;;;;;;;5113644;28;20436;-76
2022/09/03 05:29:20;;;;;;;4.63;1.38;;;;;;;;;;5110148;28;20067;-77
2022/09/03 05:31:46;;;;;;;2.35;1.10;;;;;;;;;;5115989;27;20123;-77
2022/09/03 05:34:13;;;;;;;4.70;1.52;;;;;;;;;;5080378;28;20478;-77
2022/09/03 05:36:39;;;;;;;3.72;1.50;;;;;;;;;;5104954;28;20522;-76
2022/09/03 05:39:05;;;;;;;3.00;1.23;;;;;;;;;;5096869;28;20062;-76
2022/09/03 05:41:32;;;;;;;4.22;1.48;;;;;;;;;;5109610;28;20047;-75
2022/09/03 05:43:59;;;;;;;2.30;1.30;;;;;;;;;;5088939;28;20123;-75
2022/09/03 05:46:30;;;;;;;2.22;1.40;;;;;;;;;;5111614;28;20073;-76
2022/09/03 05:49:06;;;;;;;2.42;1.20;;;;;;;;;;5100546;28;20050;-76
2022/09/03 05:51:33;;;;;;;2.97;1.20;;;;;;;;;;5075653;28;20096;-74
2022/09/03 05:54:00;;;;;;;1.98;1.20;;;;;;;;;;5111085;28;20036;-75
2022/09/03 05:56:28;;;;;;;2.25;1.30;;;;;;;;;;5072238;28;20039;-75
2022/09/03 05:58:56;;;;;;;3.92;1.30;;;;;;;;;;5118133;27;20039;-75
2022/09/03 06:01:23;;;;;;;3.33;1.27;;;;;;;;;;5107605;28;20052;-75
2022/09/03 06:03:57;;;;;;;5.95;1.52;;;;;;;;;;5109445;28;20162;-75
2022/09/03 06:06:24;;;;;;;4.20;1.27;;;;;;;;;;5120877;27;20076;-75
2022/09/03 06:09:10;;;;;;;2.92;1.48;;;;;;;;;;5113960;28;20117;-74
2022/09/03 06:11:37;;;;;;;4.82;1.80;;;;;;;;;;5108115;28;20054;-76
2022/09/03 06:14:04;;;;;;;3.70;1.70;;;;;;;;;;5108415;28;20042;-75
2022/09/03 06:16:31;;;;;;;2.80;1.48;;;;;;;;;;5101357;28;20052;-75
2022/09/03 06:18:57;;;;;;;2.58;1.48;;;;;;;;;;5111825;28;20032;-75
2022/09/03 06:21:24;;;;;;;6.30;1.48;;;;;;;;;;5113756;28;20067;-75
2022/09/03 06:23:51;;;;;;;2.40;1.38;;;;;;;;;;5105557;28;20051;-75
2022/09/03 06:26:18;;;;;;;5.03;1.40;;;;;;;;;;5086870;28;20104;-75
2022/09/03 06:28:44;;;;;;;7.57;1.58;;;;;;;;;;5108701;28;20051;-75
2022/09/03 06:31:15;;;;;;;2.72;1.60;;;;;;;;;;5107112;27;20043;-75
2022/09/03 06:33:41;;;;;;;1.90;1.30;;;;;;;;;;5091547;28;20100;-75
2022/09/03 06:36:09;;;;;;;3.25;1.50;;;;;;;;;;5111697;28;20031;-75
2022/09/03 06:38:36;;;;;;;2.85;1.33;;;;;;;;;;5098022;28;20047;-74
2022/09/03 06:41:07;;;;;;;4.57;1.58;;;;;;;;;;5094718;28;20482;-74
2022/09/03 06:43:34;;;;;;;3.15;1.35;;;;;;;;;;5093961;28;20035;-75
2022/09/03 06:46:05;;;;;;;2.38;1.33;;;;;;;;;;5088110;28;20440;-75
2022/09/03 06:48:32;;;;;;;2.47;1.60;;;;;;;;;;5107156;28;20526;-74
2022/09/03 06:51:00;;;;;;;3.10;1.40;;;;;;;;;;5108469;28;20039;-74
2022/09/03 06:53:29;;;;;;;3.80;1.60;;;;;;;;;;5113720;28;20540;-74
2022/09/03 06:55:56;;;;;;;2.60;1.52;;;;;;;;;;5110638;28;20134;-74
2022/09/03 06:58:23;;;;;;;2.15;1.38;;;;;;;;;;5110147;28;20072;-74
2022/09/03 07:00:51;;;;;;;2.28;1.35;;;;;;;;;;5094609;28;20062;-74
2022/09/03 07:03:18;;;;;;;4.53;1.48;;;;;;;;;;5095563;28;20040;-74
2022/09/03 07:05:44;;;;;;;2.10;1.50;;;;;;;;;;5104117;28;20039;-74
2022/09/03 07:08:11;;;;;;;4.40;1.67;;;;;;;;;;5093642;28;20054;-74
2022/09/03 07:10:37;;;;;;;3.75;1.35;;;;;;;;;;5108314;28;20061;-74
2022/09/03 07:13:05;;;;;;;3.33;1.30;;;;;;;;;;5112531;28;20049;-74
2022/09/03 07:15:32;;;;;;;2.00;1.25;;;;;;;;;;5110684;28;20051;-74
2022/09/03 07:17:58;;;;;;;4.13;1.60;;;;;;;;;;5111939;28;20511;-74
2022/09/03 07:20:24;;;;;;;5.05;1.27;;;;;;;;;;5091877;28;20533;-74
2022/09/03 07:22:53;;;;;;;4.32;1.60;;;;;;;;;;5083517;28;20035;-74
2022/09/03 07:25:20;;;;;;;3.22;1.50;;;;;;;;;;5084178;28;20083;-74
2022/09/03 07:27:49;;;;;;;3.08;1.40;;;;;;;;;;5106986;28;20086;-74
2022/09/03 07:30:18;;;;;;;2.75;1.48;;;;;;;;;;5092350;28;20066;-74
2022/09/03 07:32:45;;;;;;;3.20;1.60;;;;;;;;;;5091435;28;20422;-73
2022/09/03 07:35:12;;;;;;;2.28;1.42;;;;;;;;;;5075327;28;20052;-73
2022/09/03 07:37:41;;;;;;;2.33;1.40;;;;;;;;;;5106651;28;20047;-72
2022/09/03 07:40:08;;;;;;;2.78;1.50;;;;;;;;;;5104086;28;20084;-74
2022/09/03 07:42:34;;;;;;;5.82;1.60;;;;;;;;;;5106758;28;20067;-74
2022/09/03 07:45:04;;;;;;;4.72;1.30;;;;;;;;;;5111140;28;20070;-73
2022/09/03 07:47:31;;;;;;;4.15;1.60;;;;;;;;;;5112975;27;20048;-73
2022/09/03 07:49:57;;;;;;;4.72;1.77;;;;;;;;;;5112915;28;20039;-73
2022/09/03 07:52:24;;;;;;;2.17;1.33;;;;;;;;;;5088368;28;20047;-73
2022/09/03 07:54:50;;;;;;;2.58;1.50;;;;;;;;;;5070144;28;20439;-73
2022/09/03 07:57:16;;;;;;;2.15;1.25;;;;;;;;;;5092670;28;20096;-72
2022/09/03 07:59:43;;;;;;;1.83;1.27;;;;;;;;;;5108860;28;20047;-73
2022/09/03 08:02:09;;;;;;;4.75;1.60;;;;;;;;;;5111797;28;20054;-73
2022/09/03 08:04:35;;;;;;;2.90;1.50;;;;;;;;;;5088710;28;20051;-73
2022/09/03 08:07:02;;;;;;;2.10;1.30;;;;;;;;;;5093828;28;20115;-73
2022/09/03 08:09:31;;;;;;;4.22;1.60;;;;;;;;;;5096348;28;20513;-74
2022/09/03 08:11:58;;;;;;;4.55;1.40;;;;;;;;;;5073505;28;20036;-73
2022/09/03 08:14:24;;;;;;;4.07;1.42;;;;;;;;;;5099817;28;20510;-73
2022/09/03 08:16:50;;;;;;;1.98;1.30;;;;;;;;;;5095857;28;20428;-74
2022/09/03 08:19:17;;;;;;;2.85;1.60;;;;;;;;;;5101707;28;20119;-74
2022/09/03 08:21:43;;;;;;;1.83;1.23;;;;;;;;;;5094592;28;20035;-74
2022/09/03 08:24:11;;;;;;;3.70;1.55;;;;;;;;;;5088602;28;20512;-73
2022/09/03 08:26:38;;;;;;;3.67;1.27;;;;;;;;;;5110368;28;20043;-73
2022/09/03 08:29:05;;;;;;;4.95;1.70;;;;;;;;;;5101871;28;20027;-74
2022/09/03 08:31:31;;;;;;;2.75;1.45;;;;;;;;;;5087645;28;20441;-73
2022/09/03 08:34:00;;;;;;;6.03;1.65;;;;;;;;;;5091873;28;20039;-73
2022/09/03 08:36:30;;;;;;;8.77;1.95;;;;;;;;;;5102934;28;20078;-73
2022/09/03 08:38:58;;;;;;;3.25;1.38;;;;;;;;;;5088456;28;20268;-73
2022/09/03 08:41:43;;;;;;;4.93;1.65;;;;;;;;;;5083102;28;20035;-73
2022/09/03 08:44:28;;;;;;;4.93;1.65;;;;;;;;;;5108829;28;20043;-73
2022/09/03 08:47:09;;;;;;;5.15;1.42;;;;;;;;;;5086173;28;20048;-73
2022/09/03 08:49:41;;;;;;;1.55;1.20;;;;;;;;;;5093311;28;20043;-73
2022/09/03 08:52:17;;;;;;;3.42;1.58;;;;;;;;;;5096947;28;20161;-72
2022/09/03 08:54:43;;;;;;;5.00;1.70;;;;;;;;;;5095039;28;20482;-72
2022/09/03 08:57:09;;;;;;;3.28;1.45;;;;;;;;;;5105825;28;20561;-73
2022/09/03 08:59:36;;;;;;;8.00;1.40;;;;;;;;;;5093311;28;20423;-73
2022/09/03 09:02:11;;;;;;;1.77;1.15;;;;;;;;;;5093965;28;20035;-73
2022/09/03 09:04:37;;;;;;;2.38;1.20;;;;;;;;;;5111630;28;20082;-73
2022/09/03 09:07:15;;;;;;;1.95;1.40;;;;;;;;;;5088146;28;20032;-72
2022/09/03 09:09:51;;;;;;;4.47;1.48;;;;;;;;;;5089507;28;20127;-73
2022/09/03 09:12:37;;;;;;;3.60;1.10;;;;;;;;;;5095849;28;20044;-73
2022/09/03 09:15:05;;;;;;;3.75;1.75;;;;;;;;;;5107455;28;20044;-73
2022/09/03 09:17:44;;;;;;;5.18;1.60;;;;;;;;;;5085505;28;20047;-72
2022/09/03 09:20:29;;;;;;;2.97;1.38;;;;;;;;;;5089275;28;20047;-72
2022/09/03 09:22:57;;;;;;;3.05;1.50;;;;;;;;;;5116825;28;20398;-72
2022/09/03 09:25:25;;;;;;;2.65;1.55;;;;;;;;;;5090024;28;20048;-72
2022/09/03 09:28:02;;;;;;;4.75;1.60;;;;;;;;;;5109986;28;20071;-72
2022/09/03 09:30:29;;;;;;;6.32;1.85;;;;;;;;;;5111768;28;20039;-72
2022/09/03 09:32:55;;;;;;;5.25;1.65;;;;;;;;;;5093777;28;20449;-72
2022/09/03 09:35:22;;;;;;;2.08;1.35;;;;;;;;;;5111384;28;20048;-72
2022/09/03 09:37:52;;;;;;;2.85;1.60;;;;;;;;;;5085950;28;20079;-72
2022/09/03 09:40:25;;;;;;;3.83;1.65;;;;;;;;;;5074343;28;20096;-72
2022/09/03 09:42:57;;;;;;;5.68;1.83;;;;;;;;;;5103103;28;20036;-72
2022/09/03 09:45:23;;;;;;;2.10;1.42;;;;;;;;;;5106324;28;20040;-72
2022/09/03 09:47:55;;;;;;;2.58;1.40;;;;;;;;;;5111229;28;20483;-72
2022/09/03 09:50:22;;;;;;;1.73;1.02;;;;;;;;;;5093566;28;20047;-72
2022/09/03 09:52:48;;;;;;;3.30;1.73;;;;;;;;;;5109744;28;20065;-72
2022/09/03 09:55:16;;;;;;;3.17;1.10;;;;;;;;;;5093115;28;20044;-72
2022/09/03 09:57:42;;;;;;;6.75;1.67;;;;;;;;;;5093457;28;20055;-72
2022/09/03 10:00:13;;;;;;;2.65;1.50;;;;;;;;;;5108828;28;20043;-71
2022/09/03 10:02:49;;;;;;;6.05;2.28;;;;;;;;;;5091411;28;20031;-72
2022/09/03 10:05:20;;;;;;;4.90;1.10;;;;;;;;;;5079454;28;20035;-72
2022/09/03 10:08:00;;;;;;;3.15;1.70;;;;;;;;;;5105883;28;20035;-70
2022/09/03 10:10:27;;;;;;;4.55;1.65;;;;;;;;;;5109894;28;20044;-73
2022/09/03 10:13:08;;;;;;;2.70;1.40;;;;;;;;;;5111963;28;20039;-72
2022/09/03 10:15:37;;;;;;;4.80;1.63;;;;;;;;;;5089551;28;20035;-72
2022/09/03 10:18:08;;;;;;;3.47;1.30;;;;;;;;;;5108189;28;20046;-72
2022/09/03 10:20:38;;;;;;;2.67;1.73;;;;;;;;;;5104612;28;20031;-72
2022/09/03 10:23:04;;;;;;;3.35;1.63;;;;;;;;;;5111059;28;20035;-72
2022/09/03 10:25:40;;;;;;;4.28;1.25;;;;;;;;;;5075294;28;20083;-71
2022/09/03 10:28:07;;;;;;;2.30;1.10;;;;;;;;;;5091029;28;20046;-71
2022/09/03 10:30:45;;;;;;;2.72;1.40;;;;;;;;;;5079276;28;20086;-72
2022/09/03 10:33:15;;;;;;;3.83;1.40;;;;;;;;;;5110766;28;20384;-72
2022/09/03 10:35:52;;;;;;;6.93;2.03;;;;;;;;;;5097302;27;20035;-71
2022/09/03 10:38:24;;;;;;;4.35;1.40;;;;;;;;;;5105783;28;20039;-72
2022/09/03 10:40:56;;;;;;;2.42;1.30;;;;;;;;;;5121543;27;20460;-72
2022/09/03 10:43:46;;;;;;;2.75;1.63;;;;;;;;;;5104346;28;20043;-71
2022/09/03 10:46:18;;;;;;;2.83;1.50;;;;;;;;;;5088201;28;20497;-73
2022/09/03 10:49:02;;;;;;;5.73;1.70;;;;;;;;;;5077719;28;20042;-72
2022/09/03 10:51:34;;;;;;;5.68;1.55;;;;;;;;;;5114066;28;20036;-72
2022/09/03 10:54:09;;;;;;;3.13;1.20;;;;;;;;;;5110492;28;20071;-73
2022/09/03 10:56:39;;;;;;;3.53;1.70;;;;;;;;;;5105776;28;20082;-72
2022/09/03 10:59:11;;;;;;;10.40;1.33;;;;;;;;;;5083389;28;20093;-72
2022/09/03 11:01:44;;;;;;;3.42;1.55;;;;;;;;;;5091983;28;20089;-72
2022/09/03 11:04:18;;;;;;;4.03;1.35;;;;;;;;;;5090195;28;20490;-72
2022/09/03 11:06:44;;;;;;;4.38;1.30;;;;;;;;;;5087160;28;20042;-72
2022/09/03 11:09:17;;;;;;;6.38;2.00;;;;;;;;;;5112148;28;20071;-72
2022/09/03 11:11:43;;;;;;;;;;;;;;;;;;5106183;28;20036;-72
2022/09/03 11:14:10;;;;;;;4.45;1.67;;;;;;;;;;5094787;28;19981;-72
2022/09/03 11:16:43;;;;;;;2.67;1.25;;;;;;;;;;5095749;28;20462;-72
2022/09/03 11:19:11;;;;;;;2.30;1.20;;;;;;;;;;5104265;28;20508;-72
2022/09/03 11:21:40;;;;;;;6.07;1.40;;;;;;;;;;5114142;28;20044;-72
2022/09/03 11:24:12;;;;;;;6.65;1.58;;;;;;;;;;5105963;28;20081;-72
2022/09/03 11:26:39;;;;;;;4.15;1.70;;;;;;;;;;5088831;28;20083;-72
2022/09/03 11:29:15;;;;;;;3.35;1.40;;;;;;;;;;5094365;28;20509;-72
2022/09/03 11:31:46;;;;;;;3.95;1.27;;;;;;;;;;5099276;28;20028;-72
2022/09/03 11:34:26;;;;;;;3.45;1.38;;;;;;;;;;5095022;28;20035;-72
2022/09/03 11:37:03;;;;;;;2.42;1.35;;;;;;;;;;5086252;28;20047;-72
2022/09/03 11:39:33;;;;;;;2.05;1.15;;;;;;;;;;5091479;28;20500;-72
2022/09/03 11:42:05;;;;;;;5.90;1.63;;;;;;;;;;5105463;28;20475;-72
2022/09/03 11:44:38;;;;;;;3.17;1.27;;;;;;;;;;5089826;28;20169;-73
2022/09/03 11:47:15;;;;;;;4.32;1.00;;;;;;;;;;5105531;28;20116;-72
2022/09/03 11:49:46;;;;;;;2.78;1.48;;;;;;;;;;5087821;28;20043;-72
2022/09/03 11:52:12;;;;;;;1.95;1.25;;;;;;;;;;5107968;28;20054;-71
2022/09/03 11:54:45;;;;;;;5.30;1.70;;;;;;;;;;5114098;27;20528;-72
2022/09/03 11:57:21;;;;;;;4.03;1.45;;;23.30;58.10;;;;;;5078682;28;20055;-72
2022/09/03 11:59:47;;;;;;;2.88;1.23;;;;;;;;;;5095461;28;20467;-71
2022/09/03 12:02:23;;;;;;;5.68;1.73;;;;;;;;;;5113029;28;20080;-72
2022/09/03 12:05:24;;;;;;;5.00;1.30;;;24.60;60.10;;;;;;5104630;28;20668;-71
2022/09/03 12:07:59;;;;;;;2.63;1.20;;;24.70;58.00;;;;;;5105130;28;20115;-71
2022/09/03 12:10:38;;;;;;;3.35;1.30;;;24.70;58.60;;;;;;5073618;28;20051;-72
2022/09/03 12:13:25;;;;;;;5.82;1.42;;;24.70;58.10;;;;;;5112351;28;20043;-71
2022/09/03 12:16:13;;;;;;;7.93;1.67;;;24.80;57.30;;;;;;5101663;28;20754;-71
2022/09/03 12:18:40;;;;;;;4.95;1.20;;;24.80;56.90;;;;;;5097563;28;20053;-68
2022/09/03 12:21:08;;;;;;;3.95;1.40;;;24.80;57.10;;;;;;5108639;28;20075;-68
2022/09/03 12:23:45;;;;;;;3.20;1.65;;;24.90;56.90;;;;;;5090154;28;20118;-68
2022/09/03 12:26:13;;;;;;;3.40;1.42;;;;;;;;;;5073489;28;20048;-69
2022/09/03 12:28:40;;;;;;;3.05;1.38;;;;;;;;;;5086565;28;20036;-68
2022/09/03 12:31:21;;;;;;;3.50;1.73;;;;;;;;;;5078554;28;20047;-68
2022/09/03 12:33:52;;;;;;;8.18;1.60;;;;;;;;;;5076332;28;20051;-67
2022/09/03 12:36:19;;;;;;;2.95;1.08;;;;;;;;;;5072745;28;20037;-68
2022/09/03 12:38:46;;;;;;;5.22;0.98;;;;;;;;;;5058748;28;20479;-69
2022/09/03 12:41:23;;;;;;;2.33;1.50;;;;;;;;;;5081955;28;20368;-68
2022/09/03 12:43:53;;;;;;;2.80;1.23;;;;;;;;;;5088234;28;20040;-68
2022/09/03 12:46:22;;;;;;;2.08;1.25;;;;;;;;;;5086580;28;20048;-69
2022/09/03 12:48:55;;;;;;;7.07;1.40;;;;;;;;;;5081553;28;20086;-68
2022/09/03 12:51:21;;;;;;;3.30;1.23;;;;;;;;;;5061684;28;20044;-68
2022/09/03 12:53:50;;;;;;;3.47;1.30;;;;;;;;;;5087041;28;20043;-69
2022/09/03 12:56:16;;;;;;;3.95;1.52;;;;;;;;;;5057894;28;20057;-69
2022/09/03 12:58:49;;;;;;;3.78;1.27;;;;;;;;;;5069720;28;20067;-68
2022/09/03 13:01:24;;;;;;;2.70;1.17;;;;;;;;;;5068689;28;20035;-69
2022/09/03 13:03:53;;;;;;;2.72;1.10;;;;;;;;;;5081683;28;20040;-68
2022/09/03 13:06:25;;;;;;;1.15;0.98;;;;;;;;;;5066465;28;20032;-69
2022/09/03 13:08:55;;;;;;;2.03;0.98;;;;;;;;;;5085632;28;20450;-69
2022/09/03 13:11:23;;;;;;;4.00;1.20;;;;;;;;;;5068098;28;20040;-70
2022/09/03 13:14:16;;;;;;;4.13;1.17;;;;;;;;;;5088373;28;20110;-69
2022/09/03 13:16:45;;;;;;;7.15;1.13;;;;;;;;;;5079505;28;20075;-70
2022/09/03 13:19:12;;;;;;;4.15;1.48;;;;;;;;;;5066475;28;20119;-68
2022/09/03 13:22:13;;;;;;;4.80;1.52;;;;;;;;;;5086642;28;20136;-69
2022/09/03 13:24:46;;;;;;;3.45;1.02;;;;;;;;;;5026099;28;20057;-69
2022/09/03 13:27:16;;;;;;;;;;;;;;;;;;5089625;28;20494;-69
2022/09/03 13:30:02;;;;;;;5.68;1.40;;;;;;;;;;5105242;28;19911;-69
2022/09/03 13:32:39;;;;;;;2.00;1.13;;;;;;;;;;5102928;28;20142;-69
2022/09/03 13:35:21;;;;;;;3.10;1.08;;;;;;;;;;5088146;28;20099;-69
2022/09/03 13:37:52;;;;;;;4.20;1.15;;;;;;;;;;5093901;28;20078;-68
2022/09/03 13:40:18;;;;;;;2.78;1.17;;;;;;;;;;5111237;28;20028;-68
2022/09/03 13:42:56;;;;;;;2.70;1.42;;;;;;;;;;5092057;28;20075;-69
2022/09/03 13:45:25;;;;;;;4.15;1.30;;;;;;;;;;5108819;28;20532;-68
2022/09/03 13:50:41;;;;;;;4.18;1.77;;;;;;;;;;5110310;28;20062;-69
2022/09/03 13:53:31;;;;;;;2.77;1.00;;;;;;;;;;5112445;28;20435;-70
2022/09/03 13:56:04;;;;;;;5.43;1.70;;;;;;;;;;5106360;28;20441;-69
2022/09/03 13:58:37;;;;;;;7.53;1.80;;;;;;;;;;5088120;28;20132;-69
2022/09/03 14:01:15;;;;;;;2.10;1.20;;;;;;;;;;5103457;28;20055;-69
2022/09/03 14:03:46;;;;;;;6.82;1.27;;;;;;;;;;5098339;28;20080;-69
2022/09/03 14:06:12;;;;;;;1.95;1.10;;;;;;;;;;5112340;28;20039;-69
2022/09/03 14:08:57;;;;;;;3.75;1.55;;;;;;;;;;5108362;28;20024;-69
2022/09/03 14:11:27;;;;;;;4.57;1.50;;;;;;;;;;5099780;28;20046;-69
2022/09/03 14:13:56;;;;;;;2.03;1.15;;;;;;;;;;5100550;28;20039;-68
2022/09/03 14:16:42;;;;;;;2.85;1.10;;;;;;;;;;5104718;28;20047;-69
2022/09/03 14:19:15;;;;;;;3.85;0.90;;;;;;;;;;5111705;28;20040;-68
2022/09/03 14:21:54;;;;;;;3.13;1.27;;;;;;;;;;5080807;28;20063;-68
2022/09/03 14:24:23;;;;;;;3.05;1.25;;;;;;;;;;5085024;28;20119;-68
2022/09/03 14:26:52;;;;;;;7.60;1.30;;;;;;;;;;5104163;28;20040;-68
2022/09/03 14:29:20;;;;;;;4.63;1.48;;;;;;;;;;5108029;28;20274;-69
2022/09/03 14:31:51;;;;;;;3.88;1.35;;;;;;;;;;5110427;28;20262;-69
2022/09/03 14:34:17;;;;;;;3.78;1.25;;;;;;;;;;5104604;28;20032;-69
2022/09/03 14:36:43;;;;;;;3.75;1.48;;;;;;;;;;5095864;28;20111;-69
2022/09/03 14:39:23;;;;;;;2.28;1.02;;;;;;;;;;5106206;28;20046;-69
2022/09/03 14:41:49;;;;;;;1.40;0.90;;;;;;;;;;5103306;28;20488;-69
2022/09/03 14:44:34;;;;;;;1.50;0.98;;;;;;;;;;5108665;28;20080;-68
2022/09/03 14:47:00;;;;;;;3.70;1.60;;;;;;;;;;5103894;28;20027;-69
2022/09/03 14:49:40;;;;;;;16.88;2.13;;;;;;;;;;5090858;28;20402;-70
2022/09/03 14:52:18;;;;;;;3.30;1.25;;;;;;;;;;5107289;28;20043;-69
2022/09/03 14:54:47;;;;;;;11.02;2.83;;;;;;;;;;5087115;28;20100;-69
2022/09/03 14:57:21;;;;;;;3.95;1.20;;;;;;;;;;5100643;28;20084;-69
2022/09/03 14:59:53;;;;;;;3.25;1.38;;;;;;;;;;5105834;28;20144;-69
2022/09/03 15:02:26;;;;;;;4.68;1.10;;;;;;;;;;5087815;28;20042;-69
2022/09/03 15:04:52;;;;;;;;;;;;;;;;;;5103853;28;20094;-69
2022/09/03 15:07:29;;;;;;;3.63;1.10;;;;;;;;;;5105361;28;19915;-69
2022/09/03 15:10:05;;;;;;;4.38;1.33;;;;;;;;;;5084302;28;20047;-69
2022/09/03 15:12:40;;;;;;;5.28;1.50;;;;;;;;;;5090837;28;20119;-69
2022/09/03 15:15:24;;;;;;;4.55;1.13;;;;;;;;;;5111340;28;20086;-69